Time;durP1;ratioP1;P1;durP2;ratioP2;P2;SDS_P1;SDS_P2;PMS_P1;PMS_P2;Temp;Humidity;BMP_temperature;BMP_pressure;BME280_temperature;BME280_humidity;BME280_pressure;Samples;Min_cycle;Max_cycle;Signal;HPM_P1;HPM_P2
2023/11/08 00:01:39;;;;;;;1.93;1.73;;;;;;;;;;5065492;28;20192;-55
2023/11/08 00:04:05;;;;;;;1.93;1.50;;;;;;;;;;5047558;28;20195;-55
2023/11/08 00:06:33;;;;;;;1.70;1.47;;;;;;;;;;5064564;28;20192;-55
2023/11/08 00:08:59;;;;;;;3.13;1.80;;;;;;;;;;5065350;28;20271;-55
2023/11/08 00:11:30;;;;;;;2.03;1.83;;;;;;;;;;5061785;28;20250;-54
2023/11/08 00:13:57;;;;;;;1.60;1.50;;;;;;;;;;5067008;28;20305;-54
2023/11/08 00:16:23;;;;;;;1.93;1.73;;;;;;;;;;5060244;28;20185;-54
2023/11/08 00:18:49;;;;;;;3.47;1.60;;;;;;;;;;5061405;28;20366;-54
2023/11/08 00:21:16;;;;;;;2.50;1.67;;;;;;;;;;5065316;28;20455;-54
2023/11/08 00:23:42;;;;;;;1.60;1.50;;;;;;;;;;5065171;28;20192;-54
2023/11/08 00:26:09;;;;;;;2.97;2.17;;;;;;;;;;5065549;28;20207;-54
2023/11/08 00:28:35;;;;;;;2.33;1.70;;;;;;;;;;5055581;28;20249;-54
2023/11/08 00:31:01;;;;;;;2.53;1.60;;;;;;;;;;5061840;28;20250;-54
2023/11/08 00:33:27;;;;;;;2.97;1.63;;;;;;;;;;5059600;28;20208;-54
2023/11/08 00:35:54;;;;;;;3.03;1.63;;;;;;;;;;5059809;28;20187;-54
2023/11/08 00:38:20;;;;;;;4.13;1.67;;;;;;;;;;5062905;28;20609;-54
2023/11/08 00:40:46;;;;;;;3.73;2.23;;;;;;;;;;5064328;28;20188;-54
2023/11/08 00:43:12;;;;;;;2.10;1.50;;;;;;;;;;5064535;28;20261;-54
2023/11/08 00:45:38;;;;;;;2.10;1.40;;;;;;;;;;5060205;28;20192;-54
2023/11/08 00:48:05;;;;;;;2.40;1.77;;;;;;;;;;5060184;28;20762;-54
2023/11/08 00:50:31;;;;;;;2.13;1.63;;;;;;;;;;5061998;28;20516;-54
2023/11/08 00:53:02;;;;;;;2.47;1.70;;;;;;;;;;5061779;28;20713;-54
2023/11/08 00:55:28;;;;;;;2.20;1.50;;;;;;;;;;5068850;28;20279;-54
2023/11/08 00:57:55;;;;;;;3.73;1.93;;;;;;;;;;5063561;28;20577;-54
2023/11/08 01:00:21;;;;;;;2.23;1.70;;;;;;;;;;5063434;28;20185;-54
2023/11/08 01:02:48;;;;;;;3.10;1.80;;;;;;;;;;5066286;28;20187;-54
2023/11/08 01:05:15;;;;;;;2.17;1.60;;;;;;;;;;5069161;28;20659;-54
2023/11/08 01:07:41;;;;;;;2.97;2.00;;;;;;;;;;5068521;28;20184;-54
2023/11/08 01:10:07;;;;;;;2.63;1.53;;;;;;;;;;5060602;28;20184;-53
2023/11/08 01:12:33;;;;;;;2.27;1.80;;;;;;;;;;5066754;28;20361;-54
2023/11/08 01:15:00;;;;;;;1.73;1.63;;;;;;;;;;5069992;28;20187;-54
2023/11/08 01:17:26;;;;;;;3.27;1.93;;;;;;;;;;5068192;28;20187;-54
2023/11/08 01:19:53;;;;;;;3.50;1.67;;;;;;;;;;5061603;28;20169;-54
2023/11/08 01:22:20;;;;;;;2.47;1.67;;;;;;;;;;5067399;28;20346;-55
2023/11/08 01:24:47;;;;;;;1.30;1.20;;;;;;;;;;5060512;28;20239;-54
2023/11/08 01:27:14;;;;;;;1.83;1.73;;;;;;;;;;5055575;28;20632;-55
2023/11/08 01:29:41;;;;;;;1.30;1.20;;;;;;;;;;5068682;28;20161;-55
2023/11/08 01:32:07;;;;;;;1.67;1.57;;;;;;;;;;5070312;28;20224;-56
2023/11/08 01:34:33;;;;;;;1.80;1.67;;;;;;;;;;5062893;28;20199;-55
2023/11/08 01:37:00;;;;;;;1.73;1.47;;;;;;;;;;5050708;28;20541;-55
2023/11/08 01:39:26;;;;;;;3.70;1.67;;;;;;;;;;5068510;28;20172;-55
2023/11/08 01:41:52;;;;;;;2.37;1.40;;;;;;;;;;5051585;28;20176;-55
2023/11/08 01:44:22;;;;;;;3.30;1.90;;;;;;;;;;5046364;28;20196;-54
2023/11/08 01:46:52;;;;;;;2.63;1.43;;;;;;;;;;5058597;28;20740;-55
2023/11/08 01:49:19;;;;;;;2.40;1.60;;;;;;;;;;5048957;28;20189;-55
2023/11/08 01:51:46;;;;;;;1.50;1.40;;;;;;;;;;5066637;28;20188;-55
2023/11/08 01:54:13;;;;;;;1.50;1.40;;;;;;;;;;5066363;28;20547;-55
2023/11/08 01:56:42;;;;;;;1.67;1.33;;;;;;;;;;5063645;28;20173;-55
2023/11/08 01:59:11;;;;;;;2.63;1.40;;;;;;;;;;5045335;28;20295;-54
2023/11/08 02:01:37;;;;;;;3.87;2.20;;;;;;;;;;5063135;28;20200;-54
2023/11/08 02:04:04;;;;;;;2.43;1.40;;;;;;;;;;5060505;28;20189;-54
2023/11/08 02:06:32;;;;;;;2.03;1.50;;;;;;;;;;5061916;28;20257;-54
2023/11/08 02:09:00;;;;;;;2.23;1.40;;;;;;;;;;5064416;28;20267;-53
2023/11/08 02:11:26;;;;;;;2.03;1.87;;;;;;;;;;5067716;28;20195;-54
2023/11/08 02:13:53;;;;;;;5.07;2.20;;;;;;;;;;5066411;28;20196;-53
2023/11/08 02:16:19;;;;;;;3.13;1.60;;;;;;;;;;5064434;28;20860;-54
2023/11/08 02:18:49;;;;;;;2.67;1.70;;;;;;;;;;5059396;28;20181;-54
2023/11/08 02:21:16;;;;;;;1.90;1.60;;;;;;;;;;5055029;28;20192;-54
2023/11/08 02:23:42;;;;;;;1.57;1.47;;;;;;;;;;5066365;28;20192;-54
2023/11/08 02:26:08;;;;;;;2.30;1.80;;;;;;;;;;5064470;28;20656;-54
2023/11/08 02:28:35;;;;;;;4.60;1.70;;;;;;;;;;5059585;28;20215;-55
2023/11/08 02:31:01;;;;;;;2.60;1.60;;;;;;;;;;5056983;28;20444;-52
2023/11/08 02:33:28;;;;;;;1.50;1.40;;;;;;;;;;5059852;28;20206;-53
2023/11/08 02:35:54;;;;;;;2.23;1.50;;;;;;;;;;5065492;28;20672;-53
2023/11/08 02:38:21;;;;;;;2.00;1.90;;;;;;;;;;5063463;28;20253;-53
2023/11/08 02:40:47;;;;;;;3.13;1.67;;;;;;;;;;5064280;28;20168;-53
2023/11/08 02:43:13;;;;;;;2.23;1.50;;;;;;;;;;5063661;28;20191;-53
2023/11/08 02:45:40;;;;;;;2.37;1.70;;;;;;;;;;5066233;28;20192;-53
2023/11/08 02:48:06;;;;;;;2.73;1.80;;;;;;;;;;5063801;28;20245;-53
2023/11/08 02:50:34;;;;;;;2.20;1.53;;;;;;;;;;5046570;28;20184;-53
2023/11/08 02:53:00;;;;;;;3.57;1.73;;;;;;;;;;5064107;28;20212;-53
2023/11/08 02:55:27;;;;;;;3.10;1.37;;;;;;;;;;5065790;28;20284;-53
2023/11/08 02:57:53;;;;;;;2.10;1.73;;;;;;;;;;5064146;28;20609;-53
2023/11/08 03:00:20;;;;;;;3.43;1.73;;;;;;;;;;5064164;28;20184;-53
2023/11/08 03:02:47;;;;;;;4.53;1.57;;;;;;;;;;5044911;28;20666;-53
2023/11/08 03:05:15;;;;;;;1.63;1.53;;;;;;;;;;5066033;28;20184;-55
2023/11/08 03:07:42;;;;;;;2.33;1.43;;;;;;;;;;5061250;28;20180;-55
2023/11/08 03:10:09;;;;;;;1.97;1.80;;;;;;;;;;5065012;28;20173;-53
2023/11/08 03:12:35;;;;;;;1.27;1.17;;;;;;;;;;5059821;28;20196;-53
2023/11/08 03:15:02;;;;;;;5.93;1.47;;;;;;;;;;5063435;28;20204;-53
2023/11/08 03:17:28;;;;;;;1.77;1.30;;;;;;;;;;5067000;28;20181;-53
2023/11/08 03:19:55;;;;;;;1.30;1.20;;;;;;;;;;5066422;28;20184;-53
2023/11/08 03:22:21;;;;;;;2.30;1.40;;;;;;;;;;5061968;28;20299;-55
2023/11/08 03:24:47;;;;;;;1.47;1.37;;;;;;;;;;5062137;28;20177;-55
2023/11/08 03:27:14;;;;;;;2.27;1.60;;;;;;;;;;5066229;28;20234;-55
2023/11/08 03:29:40;;;;;;;1.90;1.50;;;;;;;;;;5066417;28;21092;-55
2023/11/08 03:32:06;;;;;;;1.63;1.53;;;;;;;;;;5061819;28;20228;-55
2023/11/08 03:34:33;;;;;;;2.03;1.70;;;;;;;;;;5057437;28;20315;-53
2023/11/08 03:36:59;;;;;;;1.53;1.33;;;;;;;;;;5060356;28;20181;-53
2023/11/08 03:39:25;;;;;;;2.07;1.30;;;;;;;;;;5055842;28;20189;-55
2023/11/08 03:41:51;;;;;;;4.87;1.60;;;;;;;;;;5060520;28;20263;-54
2023/11/08 03:44:17;;;;;;;1.60;1.50;;;;;;;;;;5065197;28;20265;-53
2023/11/08 03:46:43;;;;;;;2.87;1.47;;;;;;;;;;5058798;28;20261;-53
2023/11/08 03:49:09;;;;;;;3.17;1.47;;;;;;;;;;5038580;28;20191;-53
2023/11/08 03:51:35;;;;;;;2.17;1.23;;;;;;;;;;5059967;28;20540;-53
2023/11/08 03:54:03;;;;;;;2.43;1.70;;;;;;;;;;5057430;28;20705;-52
2023/11/08 03:56:30;;;;;;;2.27;1.30;;;;;;;;;;5059348;28;20533;-53
2023/11/08 03:58:56;;;;;;;3.10;1.50;;;;;;;;;;5056245;28;20291;-52
2023/11/08 04:01:22;;;;;;;2.10;1.90;;;;;;;;;;5065461;28;20211;-53
2023/11/08 04:03:49;;;;;;;1.83;1.50;;;;;;;;;;5063066;28;20369;-53
2023/11/08 04:06:15;;;;;;;2.30;1.30;;;;;;;;;;5062015;28;20188;-53
2023/11/08 04:08:41;;;;;;;1.47;1.30;;;;;;;;;;5063784;28;20192;-53
2023/11/08 04:11:07;;;;;;;2.10;1.20;;;;;;;;;;5064617;28;20259;-53
2023/11/08 04:13:33;;;;;;;3.30;1.80;;;;;;;;;;5061887;28;20211;-53
2023/11/08 04:15:59;;;;;;;2.20;1.53;;;;;;;;;;5059026;28;20172;-53
2023/11/08 04:18:26;;;;;;;2.77;1.80;;;;;;;;;;5063405;28;20204;-53
2023/11/08 04:20:52;;;;;;;2.30;1.50;;;;;;;;;;5064675;28;20705;-53
2023/11/08 04:23:18;;;;;;;1.60;1.50;;;;;;;;;;5064118;28;20279;-53
2023/11/08 04:25:49;;;;;;;1.87;1.37;;;;;;;;;;5061849;28;20200;-53
2023/11/08 04:28:17;;;;;;;2.03;1.33;;;;;;;;;;5059520;28;20279;-53
2023/11/08 04:30:44;;;;;;;1.77;1.47;;;;;;;;;;5058765;28;20230;-53
2023/11/08 04:33:10;;;;;;;2.57;1.93;;;;;;;;;;5059337;28;20348;-52
2023/11/08 04:35:37;;;;;;;1.73;1.40;;;;;;;;;;5065582;28;20180;-53
2023/11/08 04:38:04;;;;;;;2.17;1.30;;;;;;;;;;5060216;28;20194;-53
2023/11/08 04:40:30;;;;;;;4.53;1.70;;;;;;;;;;5042458;28;20181;-53
2023/11/08 04:42:57;;;;;;;5.13;1.60;;;;;;;;;;5042628;28;20184;-53
2023/11/08 04:45:23;;;;;;;2.77;1.70;;;;;;;;;;5044454;28;20254;-53
2023/11/08 04:47:49;;;;;;;2.10;1.60;;;;;;;;;;5058751;28;20609;-54
2023/11/08 04:50:15;;;;;;;2.90;1.47;;;;;;;;;;5050695;28;20667;-53
2023/11/08 04:52:41;;;;;;;2.03;1.53;;;;;;;;;;5061825;28;20279;-53
2023/11/08 04:55:09;;;;;;;3.30;1.70;;;;;;;;;;5056013;28;20201;-53
2023/11/08 04:57:35;;;;;;;4.37;1.57;;;;;;;;;;5058293;28;20252;-53
2023/11/08 05:00:05;;;;;;;1.70;1.27;;;;;;;;;;5061206;28;20184;-54
2023/11/08 05:02:34;;;;;;;1.70;1.30;;;;;;;;;;5065696;28;20204;-53
2023/11/08 05:05:01;;;;;;;1.40;1.30;;;;;;;;;;5056199;28;20588;-53
2023/11/08 05:07:27;;;;;;;4.07;1.80;;;;;;;;;;5061134;28;20188;-53
2023/11/08 05:09:53;;;;;;;1.97;1.50;;;;;;;;;;5062448;28;20252;-53
2023/11/08 05:12:20;;;;;;;2.30;1.30;;;;;;;;;;5043658;28;20195;-53
2023/11/08 05:14:46;;;;;;;2.83;1.73;;;;;;;;;;5054851;28;20629;-53
2023/11/08 05:17:16;;;;;;;1.40;1.30;;;;;;;;;;5056161;28;20596;-53
2023/11/08 05:19:42;;;;;;;4.57;1.57;;;;;;;;;;5058528;28;20177;-53
2023/11/08 05:22:11;;;;;;;3.67;1.47;;;;;;;;;;5061234;28;20601;-53
2023/11/08 05:24:37;;;;;;;2.37;1.50;;;;;;;;;;5058677;28;20557;-53
2023/11/08 05:27:04;;;;;;;2.87;1.90;;;;;;;;;;5043060;28;20189;-54
2023/11/08 05:29:31;;;;;;;2.30;1.80;;;;;;;;;;5060820;28;20225;-53
2023/11/08 05:31:59;;;;;;;1.83;1.23;;;;;;;;;;5059201;28;20285;-53
2023/11/08 05:34:26;;;;;;;3.00;1.27;;;;;;;;;;5053109;28;20296;-55
2023/11/08 05:36:52;;;;;;;1.50;1.20;;;;;;;;;;5053628;28;20267;-54
2023/11/08 05:39:22;;;;;;;3.00;1.47;;;;;;;;;;5062275;28;20726;-55
2023/11/08 05:41:52;;;;;;;3.27;1.27;;;;;;;;;;5059751;28;20579;-54
2023/11/08 05:44:19;;;;;;;4.50;1.30;;;;;;;;;;5051639;28;20196;-54
2023/11/08 05:46:45;;;;;;;1.33;1.20;;;;;;;;;;5056466;28;20240;-54
2023/11/08 05:49:12;;;;;;;2.10;1.43;;;;;;;;;;5060717;28;20254;-54
2023/11/08 05:51:39;;;;;;;2.53;1.23;;;;;;;;;;5062916;28;20271;-54
2023/11/08 05:54:06;;;;;;;1.97;1.40;;;;;;;;;;5065736;28;20693;-55
2023/11/08 05:56:32;;;;;;;1.57;1.33;;;;;;;;;;5059229;28;20567;-55
2023/11/08 05:58:58;;;;;;;4.03;1.43;;;;;;;;;;5061699;28;20204;-55
2023/11/08 06:01:25;;;;;;;1.47;1.30;;;;;;;;;;5042333;28;20283;-54
2023/11/08 06:03:51;;;;;;;2.93;1.40;;;;;;;;;;5065288;28;20181;-55
2023/11/08 06:06:21;;;;;;;1.93;1.40;;;;;;;;;;5067937;28;20184;-54
2023/11/08 06:08:50;;;;;;;2.67;1.30;;;;;;;;;;5063489;28;20648;-54
2023/11/08 06:11:17;;;;;;;3.27;1.63;;;;;;;;;;5058340;28;20189;-55
2023/11/08 06:13:46;;;;;;;2.27;1.50;;;;;;;;;;5059742;28;20196;-55
2023/11/08 06:16:12;;;;;;;3.90;1.40;;;;;;;;;;5058454;28;20180;-54
2023/11/08 06:18:39;;;;;;;1.97;1.33;;;;;;;;;;5062801;28;20604;-54
2023/11/08 06:21:05;;;;;;;1.37;1.27;;;;;;;;;;5067401;28;20188;-55
2023/11/08 06:23:32;;;;;;;2.60;1.60;;;;;;;;;;5065308;28;20607;-54
2023/11/08 06:25:58;;;;;;;3.27;1.40;;;;;;;;;;5046083;28;20184;-54
2023/11/08 06:28:25;;;;;;;3.07;1.60;;;;;;;;;;5040368;28;20549;-54
2023/11/08 06:30:53;;;;;;;1.30;1.20;;;;;;;;;;5053749;28;20252;-54
2023/11/08 06:33:19;;;;;;;1.40;1.30;;;;;;;;;;5057973;28;20691;-54
2023/11/08 06:35:45;;;;;;;3.17;1.77;;;;;;;;;;5069312;28;20234;-54
2023/11/08 06:38:12;;;;;;;2.57;1.40;;;;;;;;;;5059074;28;20284;-54
2023/11/08 06:40:47;;;;;;;2.40;1.50;;;;;;;;;;5058641;28;20185;-54
2023/11/08 06:43:14;;;;;;;2.57;1.60;;;;;;;;;;5051816;28;20208;-54
2023/11/08 06:45:40;;;;;;;5.00;1.70;;;;;;;;;;5060563;28;20914;-54
2023/11/08 06:48:07;;;;;;;2.50;1.40;;;;;;;;;;5058399;28;20578;-54
2023/11/08 06:50:34;;;;;;;2.90;1.50;;;;;;;;;;5045539;28;20275;-54
2023/11/08 06:53:00;;;;;;;2.03;1.20;;;;;;;;;;5063438;28;20574;-54
2023/11/08 06:55:26;;;;;;;1.93;1.27;;;;;;;;;;5057836;28;20246;-54
2023/11/08 06:57:53;;;;;;;5.93;1.50;;;;;;;;;;5056874;28;20720;-54
2023/11/08 07:00:19;;;;;;;2.03;1.20;;;;;;;;;;5062139;28;20180;-53
2023/11/08 07:02:45;;;;;;;1.57;1.20;;;;;;;;;;5057977;28;20282;-54
2023/11/08 07:05:12;;;;;;;2.77;1.57;;;;;;;;;;5045336;28;20612;-54
2023/11/08 07:07:39;;;;;;;2.37;1.50;;;;;;;;;;5046398;28;20299;-55
2023/11/08 07:10:09;;;;;;;3.13;1.63;;;;;;;;;;5058007;28;20569;-55
2023/11/08 07:12:36;;;;;;;3.47;1.60;;;;;;;;;;5058435;28;20636;-54
2023/11/08 07:15:03;;;;;;;2.80;1.60;;;;;;;;;;5062242;28;20204;-55
2023/11/08 07:17:30;;;;;;;4.90;1.80;;;;;;;;;;5053973;28;20580;-54
2023/11/08 07:20:00;;;;;;;1.93;1.50;;;;;;;;;;5061536;28;20189;-54
2023/11/08 07:22:26;;;;;;;2.30;1.50;;;;;;;;;;5059310;28;20215;-55
2023/11/08 07:24:52;;;;;;;2.97;1.50;;;;;;;;;;5057241;28;20205;-54
2023/11/08 07:27:19;;;;;;;2.47;1.63;;;;;;;;;;5057739;28;20199;-54
2023/11/08 07:29:45;;;;;;;3.07;1.53;;;;;;;;;;5063026;28;20601;-55
2023/11/08 07:32:13;;;;;;;3.17;1.70;;;;;;;;;;5058440;28;20232;-54
2023/11/08 07:34:42;;;;;;;2.27;1.97;;;;;;;;;;5057088;28;20208;-54
2023/11/08 07:37:08;;;;;;;1.97;1.63;;;;;;;;;;5054176;28;20671;-55
2023/11/08 07:39:38;;;;;;;4.83;1.80;;;;;;;;;;5058983;28;20240;-54
2023/11/08 07:42:04;;;;;;;3.03;1.73;;;;;;;;;;5062176;28;20187;-54
2023/11/08 07:44:31;;;;;;;1.87;1.50;;;;;;;;;;5053518;28;20628;-54
2023/11/08 07:46:57;;;;;;;3.87;1.90;;;;;;;;;;5044149;28;20185;-57
2023/11/08 07:49:24;;;;;;;5.57;2.23;;;;;;;;;;5058396;28;20276;-57
2023/11/08 07:51:51;;;;;;;5.97;1.83;;;;;;;;;;5059252;28;20204;-55
2023/11/08 07:54:17;;;;;;;4.77;1.93;;;;;;;;;;5063532;28;20204;-55
2023/11/08 07:56:44;;;;;;;5.77;2.20;;;;;;;;;;5052293;28;20198;-55
2023/11/08 07:59:10;;;;;;;5.93;2.00;;;;;;;;;;5057406;28;20488;-55
2023/11/08 08:01:37;;;;;;;5.60;1.93;;;;;;;;;;5047912;28;20188;-55
2023/11/08 08:04:05;;;;;;;3.73;1.90;;;;;;;;;;5060184;28;20187;-55
2023/11/08 08:06:32;;;;;;;3.30;1.80;;;;;;;;;;5055328;28;20181;-55
2023/11/08 08:08:58;;;;;;;4.63;2.20;;;;;;;;;;5063250;28;20184;-55
2023/11/08 08:11:25;;;;;;;3.30;2.00;;;;;;;;;;5055284;28;20617;-56
2023/11/08 08:13:53;;;;;;;4.70;2.30;;;;;;;;;;5063669;28;20236;-55
2023/11/08 08:16:22;;;;;;;4.30;1.97;;;;;;;;;;5054609;28;20656;-55
2023/11/08 08:18:49;;;;;;;2.60;2.00;;;;;;;;;;5055601;28;20207;-55
2023/11/08 08:21:15;;;;;;;5.00;1.80;;;;;;;;;;5065228;28;20531;-55
2023/11/08 08:23:41;;;;;;;4.10;2.00;;;;;;;;;;5062282;28;20192;-55
2023/11/08 08:26:11;;;;;;;5.37;2.43;;;;;;;;;;5059618;28;20556;-55
2023/11/08 08:28:37;;;;;;;4.47;1.93;;;;;;;;;;5067393;28;20658;-56
2023/11/08 08:31:03;;;;;;;4.67;1.90;;;;;;;;;;5061196;28;20231;-55
2023/11/08 08:33:29;;;;;;;5.20;2.13;;;;;;;;;;5062458;28;20204;-55
2023/11/08 08:35:59;;;;;;;4.67;2.17;;;;;;;;;;5065887;28;20176;-55
2023/11/08 08:38:25;;;;;;;4.47;2.27;;;;;;;;;;5057861;28;20180;-56
2023/11/08 08:40:52;;;;;;;3.37;2.00;;;;;;;;;;5056182;28;20195;-55
2023/11/08 08:43:22;;;;;;;6.23;2.53;;;;;;;;;;5061594;28;20203;-55
2023/11/08 08:45:50;;;;;;;5.60;2.53;;;;;;;;;;5064151;28;20184;-57
2023/11/08 08:48:17;;;;;;;3.90;1.93;;;;;;;;;;5048203;28;20559;-55
2023/11/08 08:50:43;;;;;;;4.13;1.87;;;;;;;;;;5059848;28;20237;-55
2023/11/08 08:53:09;;;;;;;2.57;2.23;;;;;;;;;;5043146;28;20238;-55
2023/11/08 08:55:36;;;;;;;4.97;2.10;;;;;;;;;;5040380;28;20188;-55
2023/11/08 08:58:04;;;;;;;5.47;2.17;;;;;;;;;;5055297;28;20228;-55
2023/11/08 09:00:30;;;;;;;3.50;1.90;;;;;;;;;;5057113;28;20290;-55
2023/11/08 09:03:00;;;;;;;4.30;2.63;;;;;;;;;;5060369;28;20177;-55
2023/11/08 09:05:26;;;;;;;5.40;2.83;;;;;;;;;;5056377;28;20187;-56
2023/11/08 09:07:52;;;;;;;5.27;2.10;;;;;;;;;;5059889;28;20604;-56
2023/11/08 09:10:21;;;;;;;4.80;2.13;;;;;;;;;;5056228;28;20258;-56
2023/11/08 09:12:47;;;;;;;4.60;2.10;;;;;;;;;;5063354;28;20192;-56
2023/11/08 09:15:14;;;;;;;4.77;2.27;;;;;;;;;;5063312;28;20672;-56
2023/11/08 09:17:40;;;;;;;4.10;2.10;;;;;;;;;;5058894;28;20173;-55
2023/11/08 09:20:11;;;;;;;2.87;1.87;;;;;;;;;;5060528;28;20563;-55
2023/11/08 09:22:40;;;;;;;2.53;2.00;;;;;;;;;;5060864;28;20196;-55
2023/11/08 09:25:08;;;;;;;3.23;2.10;;;;;;;;;;5067827;28;20187;-55
2023/11/08 09:27:36;;;;;;;4.43;2.37;;;;;;;;;;5068685;28;20305;-56
2023/11/08 09:30:04;;;;;;;4.03;2.10;;;;;;;;;;5064481;28;20295;-56
2023/11/08 09:32:33;;;;;;;3.87;2.13;;;;;;;;;;5062542;28;20292;-55
2023/11/08 09:35:00;;;;;;;5.80;1.87;;;;;;;;;;5064119;28;20320;-56
2023/11/08 09:37:26;;;;;;;5.23;2.10;;;;;;;;;;5047045;28;20181;-55
2023/11/08 09:39:55;;;;;;;3.67;2.13;;;;;;;;;;5058429;28;20249;-56
2023/11/08 09:42:23;;;;;;;4.63;1.80;;;;;;;;;;5062481;28;20185;-56
2023/11/08 09:44:49;;;;;;;5.23;2.70;;;;;;;;;;5063057;28;20375;-56
2023/11/08 09:47:16;;;;;;;3.23;1.77;;;;;;;;;;5060864;28;20192;-56
2023/11/08 09:49:49;;;;;;;3.50;2.13;;;;;;;;;;5045442;28;20204;-56
2023/11/08 09:52:16;;;;;;;2.27;1.73;;;;;;;;;;5064691;28;20179;-56
2023/11/08 09:54:44;;;;;;;2.97;1.63;;;;;;;;;;5049420;28;20200;-56
2023/11/08 09:57:14;;;;;;;3.17;1.80;;;;;;;;;;5046630;28;20619;-57
2023/11/08 09:59:41;;;;;;;3.20;1.73;;;;;;;;;;5060426;28;20215;-56
2023/11/08 10:02:12;;;;;;;3.17;1.97;;;;;;;;;;5049050;28;20184;-56
2023/11/08 10:04:39;;;;;;;2.30;1.73;;;;;;;;;;5062411;28;20286;-56
2023/11/08 10:07:05;;;;;;;4.17;2.10;;;;;;;;;;5059508;28;20184;-59
2023/11/08 10:09:36;;;;;;;4.80;2.20;;;;;;;;;;5062756;28;20644;-56
2023/11/08 10:12:04;;;;;;;6.53;2.30;;;;;;;;;;5063229;28;20188;-56
2023/11/08 10:14:35;;;;;;;5.10;1.90;;;;;;;;;;5045043;28;20694;-56
2023/11/08 10:17:03;;;;;;;4.23;1.70;;;;;;;;;;5067777;28;20188;-56
2023/11/08 10:19:40;;;;;;;2.23;1.60;;;;;;;;;;5042121;28;20181;-56
2023/11/08 10:22:07;;;;;;;4.47;1.70;;;;;;;;;;5060588;28;20263;-56
2023/11/08 10:24:33;;;;;;;5.13;2.47;;;;;;;;;;5067076;28;20213;-56
2023/11/08 10:27:11;;;;;;;3.73;1.90;;;;;;;;;;5064296;28;20481;-56
2023/11/08 10:29:38;;;;;;;2.53;1.60;;;;;;;;;;5047147;28;20279;-56
2023/11/08 10:32:24;;;;;;;3.77;1.67;;;;;;;;;;5062061;28;20556;-60
2023/11/08 10:34:51;;;;;;;3.97;2.27;;;;;;;;;;5055730;28;20264;-55
2023/11/08 10:37:25;;;;;;;3.20;1.70;;;;;;;;;;5057927;28;20177;-56
2023/11/08 10:39:54;;;;;;;4.10;1.87;;;;;;;;;;5065668;28;20184;-55
2023/11/08 10:42:21;;;;;;;6.30;2.50;;;;;;;;;;5063249;28;20836;-56
2023/11/08 10:44:48;;;;;;;4.40;1.70;;;;;;;;;;5041873;28;20715;-55
2023/11/08 10:47:15;;;;;;;2.97;1.77;;;;;;;;;;5065021;28;20182;-55
2023/11/08 10:49:42;;;;;;;2.53;1.70;;;;;;;;;;5066261;28;20192;-55
2023/11/08 10:52:10;;;;;;;3.83;1.70;;;;;;;;;;5066650;28;20199;-55
2023/11/08 10:54:41;;;;;;;3.33;1.87;;;;;;;;;;5059381;28;20291;-56
2023/11/08 10:57:07;;;;;;;2.27;1.40;;;;;;;;;;5064184;28;20224;-55
2023/11/08 10:59:37;;;;;;;3.33;1.60;;;;;;;;;;5059138;28;20357;-56
2023/11/08 11:02:15;;;;;;;3.37;1.60;;;;;;;;;;5063858;28;20330;-55
2023/11/08 11:04:42;;;;;;;2.63;1.27;;;;;;;;;;5057071;28;20233;-56
2023/11/08 11:07:13;;;;;;;5.03;1.83;;;;;;;;;;5058210;28;20593;-55
2023/11/08 11:09:39;;;;;;;2.03;1.50;;;;;;;;;;5063891;28;20267;-56
2023/11/08 11:12:11;;;;;;;2.27;1.87;;;;;;;;;;5059726;28;20183;-56
2023/11/08 11:14:42;;;;;;;3.00;1.57;;;;;;;;;;5052437;28;20192;-56
2023/11/08 11:17:27;;;;;;;6.67;2.60;;;;;;;;;;5055051;28;20189;-56
2023/11/08 11:19:55;;;;;;;2.30;1.47;;;;;;;;;;5057136;28;20190;-56
2023/11/08 11:22:22;;;;;;;2.97;1.80;;;;;;;;;;5060640;28;20184;-56
2023/11/08 11:24:48;;;;;;;3.10;2.00;;;;;;;;;;5062785;28;20184;-56
2023/11/08 11:27:33;;;;;;;3.80;1.73;;;;;;;;;;5059398;28;20187;-56
2023/11/08 11:30:14;;;;;;;3.80;2.00;;;;;;;;;;5063320;28;20188;-56
2023/11/08 11:32:47;;;;;;;2.97;1.70;;;;;;;;;;5062398;28;20298;-55
2023/11/08 11:35:20;;;;;;;5.60;2.17;;;;;;;;;;5065940;28;20207;-56
2023/11/08 11:38:18;;;;;;;2.60;1.70;;;;;;;;;;5057917;28;20682;-55
2023/11/08 11:40:48;;;;;;;5.30;1.70;;;;;;;;;;5008738;28;20575;-56
2023/11/08 11:43:38;;;;;;;4.83;1.70;;;;;;;;;;5050138;28;20189;-55
2023/11/08 11:46:04;;;;;;;5.30;1.80;;;;;;;;;;5066612;28;20665;-54
2023/11/08 11:48:36;;;;;;;4.13;1.73;;;;;;;;;;5057201;28;20824;-54
2023/11/08 11:51:03;;;;;;;2.73;1.77;;;;;;;;;;5067884;28;20187;-55
2023/11/08 11:53:30;;;;;;;1.60;1.50;;;;;;;;;;5060571;28;20200;-54
2023/11/08 11:55:57;;;;;;;3.70;1.80;;;;;;;;;;5057457;28;20664;-54
2023/11/08 11:58:23;;;;;;;1.83;1.50;;;;;;;;;;5063216;28;20537;-54
2023/11/08 12:00:54;;;;;;;3.20;1.83;;;;;;;;;;5067679;28;20182;-54
2023/11/08 12:03:20;;;;;;;3.43;1.80;;;;;;;;;;5066592;28;20664;-54
2023/11/08 12:05:47;;;;;;;2.63;1.70;;;;;;;;;;5048812;28;20707;-54
2023/11/08 12:08:13;;;;;;;1.73;1.63;;;;;;;;;;5067063;28;20188;-54
2023/11/08 12:10:39;;;;;;;2.33;1.80;;;;;;;;;;5068175;28;20216;-56
2023/11/08 12:13:06;;;;;;;3.77;1.80;;;;;;;;;;5047954;28;20188;-55
2023/11/08 12:15:34;;;;;;;2.23;1.63;;;;;;;;;;5067520;28;20666;-54
2023/11/08 12:18:02;;;;;;;2.53;1.50;;;;;;;;;;5066292;28;20198;-54
2023/11/08 12:20:33;;;;;;;4.10;1.73;;;;;;;;;;5066333;28;20501;-54
2023/11/08 12:23:00;;;;;;;2.30;1.67;;;;;;;;;;5066952;28;20241;-54
2023/11/08 12:25:27;;;;;;;3.37;2.00;;;;;;;;;;5049767;28;20275;-54
2023/11/08 12:27:57;;;;;;;3.40;1.63;;;;;;;;;;5067192;28;20221;-54
2023/11/08 12:30:28;;;;;;;2.77;1.80;;;;;;;;;;5053822;28;20651;-54
2023/11/08 12:32:58;;;;;;;4.50;1.67;;;;;;;;;;5068041;28;20765;-54
2023/11/08 12:35:25;;;;;;;3.40;1.60;;;;;;;;;;5068220;28;20205;-54
2023/11/08 12:37:56;;;;;;;1.60;1.50;;;;;;;;;;5049609;28;20467;-54
2023/11/08 12:40:23;;;;;;;2.97;1.87;;;;;;;;;;5066793;28;20195;-54
2023/11/08 12:42:50;;;;;;;4.27;1.87;;;;;;;;;;5067110;28;21045;-54
2023/11/08 12:45:29;;;;;;;3.53;1.63;;;;;;;;;;5049651;28;20222;-54
2023/11/08 12:48:09;;;;;;;4.17;1.80;;;;;;;;;;5066497;28;20191;-54
2023/11/08 12:50:36;;;;;;;1.90;1.50;;;;;;;;;;5068201;28;20274;-53
2023/11/08 12:53:03;;;;;;;4.03;1.73;;;;;;;;;;5066193;28;20176;-54
2023/11/08 12:55:40;;;;;;;4.87;2.50;;;;;;;;;;5061984;28;20308;-54
2023/11/08 12:58:27;;;;;;;6.60;2.20;;;;;;;;;;5060086;28;20553;-54
2023/11/08 13:00:56;;;;;;;3.03;1.73;;;;;;;;;;5064845;28;20173;-54
2023/11/08 13:03:26;;;;;;;3.57;1.97;;;;;;;;;;5065159;28;20433;-54
2023/11/08 13:05:58;;;;;;;2.70;1.57;;;;;;;;;;5067100;28;20184;-55
2023/11/08 13:08:25;;;;;;;3.13;2.00;;;;;;;;;;5064517;28;20176;-54
2023/11/08 13:10:52;;;;;;;3.70;1.70;;;;;;;;;;5067454;28;20263;-55
2023/11/08 13:13:19;;;;;;;2.77;1.30;;;;;;;;;;5066373;28;20226;-54
2023/11/08 13:15:47;;;;;;;5.23;2.13;;;;;;;;;;5066223;28;20180;-55
2023/11/08 13:18:16;;;;;;;3.27;1.93;;;;;;;;;;5065986;28;20173;-54
2023/11/08 13:20:43;;;;;;;5.13;2.10;;;;;;;;;;5066904;28;20185;-54
2023/11/08 13:23:10;;;;;;;3.43;2.10;;;;;;;;;;5064574;28;20176;-54
2023/11/08 13:25:36;;;;;;;2.00;1.73;;;;;;;;;;5065548;28;20794;-54
2023/11/08 13:28:02;;;;;;;5.27;2.00;;;;;;;;;;5065397;28;20662;-55
2023/11/08 13:30:29;;;;;;;5.67;2.17;;;;;;;;;;5066991;28;20639;-54
2023/11/08 13:32:56;;;;;;;5.07;2.43;;;;;;;;;;5064855;28;20180;-54
2023/11/08 13:35:22;;;;;;;2.47;1.90;;;;;;;;;;5048510;28;20212;-54
2023/11/08 13:37:49;;;;;;;2.60;1.80;;;;;;;;;;5066378;28;20679;-55
2023/11/08 13:40:15;;;;;;;4.00;1.90;;;;;;;;;;5066126;28;20529;-54
2023/11/08 13:42:41;;;;;;;2.70;1.57;;;;;;;;;;5066542;28;20275;-55
2023/11/08 13:45:08;;;;;;;6.23;2.33;;;;;;;;;;5064958;28;20539;-54
2023/11/08 13:47:39;;;;;;;3.03;1.77;;;;;;;;;;5067873;28;20273;-55
2023/11/08 13:50:06;;;;;;;3.27;1.90;;;;;;;;;;5066448;28;20325;-54
2023/11/08 13:52:33;;;;;;;2.20;1.53;;;;;;;;;;5063618;28;20727;-55
2023/11/08 13:54:59;;;;;;;2.07;1.67;;;;;;;;;;5067409;28;20678;-54
2023/11/08 13:57:26;;;;;;;3.83;1.70;;;;;;;;;;5067847;28;20183;-55
2023/11/08 13:59:52;;;;;;;2.50;1.70;;;;;;;;;;5047713;28;20811;-55
2023/11/08 14:02:20;;;;;;;2.67;2.07;;;;;;;;;;5067373;28;20184;-54
2023/11/08 14:04:47;;;;;;;1.73;1.63;;;;;;;;;;5066276;28;20204;-55
2023/11/08 14:07:14;;;;;;;2.53;1.70;;;;;;;;;;5067292;28;20351;-56
2023/11/08 14:09:40;;;;;;;4.70;1.97;;;;;;;;;;5069545;28;20192;-55
2023/11/08 14:12:07;;;;;;;6.70;1.50;;;;;;;;;;5052980;28;20405;-56
2023/11/08 14:14:35;;;;;;;1.70;1.60;;;;;;;;;;5069703;28;20204;-56
2023/11/08 14:17:04;;;;;;;1.87;1.53;;;;;;;;;;5070917;28;20171;-56
2023/11/08 14:19:31;;;;;;;3.03;1.43;;;;;;;;;;5069860;28;20184;-56
2023/11/08 14:21:57;;;;;;;2.77;1.67;;;;;;;;;;5069756;28;20543;-56
2023/11/08 14:24:23;;;;;;;1.67;1.43;;;;;;;;;;5062937;28;20189;-56
2023/11/08 14:26:49;;;;;;;5.20;1.93;;;;;;;;;;5069256;28;20184;-56
2023/11/08 14:29:18;;;;;;;1.60;1.50;;;;;;;;;;5069383;28;20303;-56
2023/11/08 14:31:45;;;;;;;2.17;1.43;;;;;;;;;;5066391;28;20220;-56
2023/11/08 14:34:11;;;;;;;6.77;2.23;;;;;;;;;;5066828;28;20236;-56
2023/11/08 14:36:38;;;;;;;4.40;1.90;;;;;;;;;;5069217;28;20560;-55
2023/11/08 14:39:04;;;;;;;3.53;1.73;;;;;;;;;;5067751;28;20272;-56
2023/11/08 14:41:31;;;;;;;3.30;1.47;;;;;;;;;;5070256;28;20717;-56
2023/11/08 14:43:57;;;;;;;2.83;1.43;;;;;;;;;;5069191;28;20188;-56
2023/11/08 14:46:23;;;;;;;2.30;1.67;;;;;;;;;;5068765;28;20196;-56